Terminal Aerodrome Forecast
Issued by NWS Chicago, IL

Home | Current Version | Previous Version | Text Only | Print | Product List | Glossary Off
Versions: 1 2 3 4 5 6 7 8 9 10 11 12 13 14 15 16 17 18 19 20 21 22 23 24 25 26 27

443
FTUS43 KLOT 211500 AAA
TAFRFD
TAF AMD
KRFD 211500Z 2115/2212 35010KT P6SM BKN120
     FM220200 02012KT P6SM SCT035
     FM220500 05013KT P6SM SCT020 BKN030=

USA.gov is the U.S. government's official web portal to all federal, state and local government web resources and services.